Meteorological Aerodrome Report (METAR)

METAR

Data at: 0050 UTC 23 May 2019

METAR for:NVSC (Sola/Vanua Lava Arpt, --, NV)
Text:NVSC 222100Z 00000KT 9999 DZ BKN020 26/23 Q1014
Temperature: 26.0°C ( 79°F)
Dewpoint: 23.0°C ( 73°F) [RH = 84%]
Pressure (altimeter):29.94 inches Hg (1014.0 mb)
Winds:calm
Visibility:6 or more sm (10+ km)
Ceiling:2000 feet AGL
Clouds: broken clouds at 2000 feet AGL
Weather:DZ (moderate drizzle)

METAR

Data at: 0050 UTC 23 May 2019

METAR for:NVSG (Longana Arpt, --, NV)
Text:No data found

METAR

Data at: 0050 UTC 23 May 2019

METAR for:NVSS (Santo/Pekoa Intl, --, NV)
Text:NVSS 230000Z 14007KT 9999 SCT025 26/19 Q1014
Temperature: 26.0°C ( 79°F)
Dewpoint: 19.0°C ( 66°F) [RH = 65%]
Pressure (altimeter):29.94 inches Hg (1014.0 mb)
Winds:from the SE (140 degrees) at 8 MPH (7 knots; 3.6 m/s)
Visibility:6 or more sm (10+ km)
Ceiling:at least 12,000 feet AGL
Clouds: scattered clouds at 2500 feet AGL

METAR

Data at: 0050 UTC 23 May 2019

METAR for:NVSL (Malekula/Lamap, --, NV)
Text:No data found

METAR

Data at: 0050 UTC 23 May 2019

METAR for:NVSP (Norsup Arpt, --, NV)
Text:No data found

METAR

Data at: 0050 UTC 23 May 2019

METAR for:NVVV (Efate/Bauerfield Int, --, NV)
Text:NVVV 230000Z 13011KT 9999 BKN020 28/18 Q1015
Temperature: 28.0°C ( 82°F)
Dewpoint: 18.0°C ( 64°F) [RH = 55%]
Pressure (altimeter):29.97 inches Hg (1015.0 mb)
Winds:from the SE (130 degrees) at 13 MPH (11 knots; 5.7 m/s)
Visibility:6 or more sm (10+ km)
Ceiling:2000 feet AGL
Clouds: broken clouds at 2000 feet AGL

METAR

Data at: 0050 UTC 23 May 2019

METAR for:NVVW (Tanna Arpt, --, NV)
Text:NVVW 230000Z 16012KT 9999 BKN025 26/20 Q1014
Temperature: 26.0°C ( 79°F)
Dewpoint: 20.0°C ( 68°F) [RH = 70%]
Pressure (altimeter):29.94 inches Hg (1014.0 mb)
Winds:from the SSE (160 degrees) at 14 MPH (12 knots; 6.2 m/s)
Visibility:6 or more sm (10+ km)
Ceiling:2500 feet AGL
Clouds: broken clouds at 2500 feet AGL

METAR

Data at: 0050 UTC 23 May 2019

METAR for:NVVA (Aneityum/Mystery Isl, --, NV)
Text:NVVA 230000Z 18008KT 9999 -SHRA FEW018 SCT020 BKN110 24/20 Q1016
Temperature: 24.0°C ( 75°F)
Dewpoint: 20.0°C ( 68°F) [RH = 78%]
Pressure (altimeter):30.00 inches Hg (1016.0 mb)
Winds:from the S (180 degrees) at 9 MPH (8 knots; 4.1 m/s)
Visibility:6 or more sm (10+ km)
Ceiling:11000 feet AGL
Clouds: few clouds at 1800 feet AGL, scattered clouds at 2000 feet AGL, broken clouds at 11000 feet AGL
Weather:-SHRA (light rain showers)

METAR

Data at: 0050 UTC 23 May 2019

NVVV 230000Z 13011KT 9999 BKN020 28/18 Q1015
NVSC 222100Z 00000KT 9999 DZ BKN020 26/23 Q1014
No Data available for NVSG
NVSS 230000Z 14007KT 9999 SCT025 26/19 Q1014
No Data available for NVSL
No Data available for NVSP
NVVW 230000Z 16012KT 9999 BKN025 26/20 Q1014
NVVA 230000Z 18008KT 9999 -SHRA FEW018 SCT020 BKN110 24/20 Q1016